Albia, Iowa
Current Conditions -  °F | °C
As of 1:01 AM on Saturday 25 Oct 2014 (Local Time) from KOTM Reporting Station
Moderate Fog Moderate Fog  
Wind Chill: 55°   Ceiling: 900
Heat Index: 55°   Visibility: 0.5mi
Dew Point: 55°   Wind: 6mph
Humidity: 100%   Direction: 270°W
Pressure: 29.96"   Gusts: NA
Location:  41.03°N, 92.81°W
Report Text: KOTM 250601Z AUTO 27005KT 1/2SM FG VV009 13/13 A2996 RMK AO2 T01280128
Loading
Personal Weather Stations






























Interactive Weather Map
Tropical Storm Tracking
New forecast layout! Learn more

10-Day Weather Forecast

Advertisements
Track Severe Weather on mobile